sensor_id;sensor_type;location;lat;lon;timestamp;pressure;altitude;pressure_sealevel;temperature;humidity
7668;BME280;3876;42.204;24.686;2023-05-12T00:00:39;99908.97;;;11.66;100.00
7668;BME280;3876;42.204;24.686;2023-05-12T00:03:05;99909.84;;;11.65;100.00
7668;BME280;3876;42.204;24.686;2023-05-12T00:05:33;99907.53;;;11.54;100.00
7668;BME280;3876;42.204;24.686;2023-05-12T00:08:00;99908.53;;;11.49;100.00
7668;BME280;3876;42.204;24.686;2023-05-12T00:10:27;99911.91;;;11.51;100.00
7668;BME280;3876;42.204;24.686;2023-05-12T00:12:54;99907.69;;;11.48;100.00
7668;BME280;3876;42.204;24.686;2023-05-12T00:15:21;99906.16;;;11.41;100.00
7668;BME280;3876;42.204;24.686;2023-05-12T00:17:48;99902.72;;;11.42;100.00
7668;BME280;3876;42.204;24.686;2023-05-12T00:20:16;99902.63;;;11.45;100.00
7668;BME280;3876;42.204;24.686;2023-05-12T00:22:44;99909.41;;;11.48;100.00
7668;BME280;3876;42.204;24.686;2023-05-12T00:25:11;99905.22;;;11.45;100.00
7668;BME280;3876;42.204;24.686;2023-05-12T00:27:38;99905.91;;;11.50;100.00
7668;BME280;3876;42.204;24.686;2023-05-12T00:30:05;99904.19;;;11.52;100.00
7668;BME280;3876;42.204;24.686;2023-05-12T00:32:32;99910.03;;;11.57;100.00
7668;BME280;3876;42.204;24.686;2023-05-12T00:34:59;99906.53;;;11.60;100.00
7668;BME280;3876;42.204;24.686;2023-05-12T00:37:26;99903.84;;;11.65;100.00
7668;BME280;3876;42.204;24.686;2023-05-12T00:39:54;99910.97;;;11.53;100.00
7668;BME280;3876;42.204;24.686;2023-05-12T00:42:20;99913.69;;;11.49;100.00
7668;BME280;3876;42.204;24.686;2023-05-12T00:44:47;99918.97;;;11.43;100.00
7668;BME280;3876;42.204;24.686;2023-05-12T00:47:14;99918.03;;;11.45;100.00
7668;BME280;3876;42.204;24.686;2023-05-12T00:49:41;99916.34;;;11.44;100.00
7668;BME280;3876;42.204;24.686;2023-05-12T00:52:08;99921.63;;;11.40;100.00
7668;BME280;3876;42.204;24.686;2023-05-12T00:54:35;99919.91;;;11.40;100.00
7668;BME280;3876;42.204;24.686;2023-05-12T00:57:05;99925.09;;;11.37;100.00
7668;BME280;3876;42.204;24.686;2023-05-12T00:59:31;99925.09;;;11.37;100.00
7668;BME280;3876;42.204;24.686;2023-05-12T01:01:58;99883.72;;;11.16;100.00
7668;BME280;3876;42.204;24.686;2023-05-12T01:04:25;99929.47;;;11.34;100.00
7668;BME280;3876;42.204;24.686;2023-05-12T01:06:56;99926.06;;;11.33;100.00
7668;BME280;3876;42.204;24.686;2023-05-12T01:09:23;99905.94;;;11.17;100.00
7668;BME280;3876;42.204;24.686;2023-05-12T01:11:50;99921.97;;;11.25;100.00
7668;BME280;3876;42.204;24.686;2023-05-12T01:14:18;99920.88;;;11.35;100.00
7668;BME280;3876;42.204;24.686;2023-05-12T01:16:48;99924.97;;;11.43;100.00
7668;BME280;3876;42.204;24.686;2023-05-12T01:19:28;99931.66;;;11.47;100.00
7668;BME280;3876;42.204;24.686;2023-05-12T01:21:58;99922.50;;;11.39;100.00
7668;BME280;3876;42.204;24.686;2023-05-12T01:24:26;99929.41;;;11.35;100.00
7668;BME280;3876;42.204;24.686;2023-05-12T01:26:56;99921.81;;;11.32;100.00
7668;BME280;3876;42.204;24.686;2023-05-12T01:29:23;99922.66;;;11.31;100.00
7668;BME280;3876;42.204;24.686;2023-05-12T01:31:50;99917.50;;;11.33;100.00
7668;BME280;3876;42.204;24.686;2023-05-12T01:34:17;99914.19;;;11.29;100.00
7668;BME280;3876;42.204;24.686;2023-05-12T01:36:44;99916.91;;;11.23;100.00
7668;BME280;3876;42.204;24.686;2023-05-12T01:39:10;99914.88;;;11.34;100.00
7668;BME280;3876;42.204;24.686;2023-05-12T01:41:37;99914.81;;;11.37;100.00
7668;BME280;3876;42.204;24.686;2023-05-12T01:44:05;99911.53;;;11.32;100.00
7668;BME280;3876;42.204;24.686;2023-05-12T01:46:32;99911.28;;;11.41;100.00
7668;BME280;3876;42.204;24.686;2023-05-12T01:48:59;99892.63;;;11.36;100.00
7668;BME280;3876;42.204;24.686;2023-05-12T01:51:25;99911.75;;;11.57;100.00
7668;BME280;3876;42.204;24.686;2023-05-12T01:53:52;99900.00;;;11.48;100.00
7668;BME280;3876;42.204;24.686;2023-05-12T01:56:19;99908.19;;;11.63;100.00
7668;BME280;3876;42.204;24.686;2023-05-12T01:58:47;99908.09;;;11.66;100.00
7668;BME280;3876;42.204;24.686;2023-05-12T02:01:15;99914.00;;;11.69;100.00
7668;BME280;3876;42.204;24.686;2023-05-12T02:03:42;99913.97;;;11.72;100.00
7668;BME280;3876;42.204;24.686;2023-05-12T02:06:09;99906.94;;;11.79;100.00
7668;BME280;3876;42.204;24.686;2023-05-12T02:08:36;99912.00;;;11.82;100.00
7668;BME280;3876;42.204;24.686;2023-05-12T02:11:05;99909.34;;;11.83;100.00
7668;BME280;3876;42.204;24.686;2023-05-12T02:13:32;99905.16;;;11.81;100.00
7668;BME280;3876;42.204;24.686;2023-05-12T02:15:59;99905.31;;;11.75;100.00
7668;BME280;3876;42.204;24.686;2023-05-12T02:18:27;99910.84;;;11.59;100.00
7668;BME280;3876;42.204;24.686;2023-05-12T02:20:54;99911.63;;;11.62;100.00
7668;BME280;3876;42.204;24.686;2023-05-12T02:23:21;99908.97;;;11.65;100.00
7668;BME280;3876;42.204;24.686;2023-05-12T02:25:48;99909.69;;;11.70;100.00
7668;BME280;3876;42.204;24.686;2023-05-12T02:28:14;99907.13;;;11.71;100.00
7668;BME280;3876;42.204;24.686;2023-05-12T02:30:44;99907.03;;;11.74;100.00
7668;BME280;3876;42.204;24.686;2023-05-12T02:33:11;99908.06;;;11.67;100.00
7668;BME280;3876;42.204;24.686;2023-05-12T02:35:39;99909.06;;;11.62;100.00
7668;BME280;3876;42.204;24.686;2023-05-12T02:38:06;99879.50;;;11.47;100.00
7668;BME280;3876;42.204;24.686;2023-05-12T02:40:32;99904.69;;;11.65;100.00
7668;BME280;3876;42.204;24.686;2023-05-12T02:42:59;99893.91;;;11.52;100.00
7668;BME280;3876;42.204;24.686;2023-05-12T02:45:26;99900.47;;;11.63;100.00
7668;BME280;3876;42.204;24.686;2023-05-12T02:47:53;99902.16;;;11.64;100.00
7668;BME280;3876;42.204;24.686;2023-05-12T02:50:20;99902.88;;;11.69;100.00
7668;BME280;3876;42.204;24.686;2023-05-12T02:52:49;99906.41;;;11.65;100.00
7668;BME280;3876;42.204;24.686;2023-05-12T02:55:16;99901.25;;;11.66;100.00
7668;BME280;3876;42.204;24.686;2023-05-12T02:57:43;99909.69;;;11.70;100.00
7668;BME280;3876;42.204;24.686;2023-05-12T03:00:10;99904.63;;;11.67;100.00
7668;BME280;3876;42.204;24.686;2023-05-12T03:02:38;99889.69;;;11.50;100.00
7668;BME280;3876;42.204;24.686;2023-05-12T03:05:05;99918.28;;;11.69;100.00
7668;BME280;3876;42.204;24.686;2023-05-12T03:07:32;99917.41;;;11.70;100.00
7668;BME280;3876;42.204;24.686;2023-05-12T03:10:00;99922.44;;;11.76;100.00
7668;BME280;3876;42.204;24.686;2023-05-12T03:12:29;99925.69;;;11.81;100.00
7668;BME280;3876;42.204;24.686;2023-05-12T03:14:56;99926.50;;;11.83;100.00
7668;BME280;3876;42.204;24.686;2023-05-12T03:17:23;99931.53;;;11.86;100.00
7668;BME280;3876;42.204;24.686;2023-05-12T03:19:49;99937.41;;;11.91;100.00
7668;BME280;3876;42.204;24.686;2023-05-12T03:22:16;99935.56;;;11.96;100.00
7668;BME280;3876;42.204;24.686;2023-05-12T03:24:43;99940.69;;;11.96;100.00
7668;BME280;3876;42.204;24.686;2023-05-12T03:27:12;99941.47;;;11.99;100.00
7668;BME280;3876;42.204;24.686;2023-05-12T03:29:38;99945.75;;;11.99;100.00
7668;BME280;3876;42.204;24.686;2023-05-12T03:32:05;99948.22;;;12.02;100.00
7668;BME280;3876;42.204;24.686;2023-05-12T03:34:33;99949.13;;;12.01;100.00
7668;BME280;3876;42.204;24.686;2023-05-12T03:36:59;99950.75;;;12.05;100.00
7668;BME280;3876;42.204;24.686;2023-05-12T03:39:26;99951.53;;;12.07;100.00
7668;BME280;3876;42.204;24.686;2023-05-12T03:41:53;99954.03;;;12.08;100.00
7668;BME280;3876;42.204;24.686;2023-05-12T03:44:21;99952.31;;;12.09;100.00
7668;BME280;3876;42.204;24.686;2023-05-12T03:46:48;99962.44;;;12.15;100.00
7668;BME280;3876;42.204;24.686;2023-05-12T03:49:14;99959.88;;;12.15;100.00
7668;BME280;3876;42.204;24.686;2023-05-12T03:51:41;99960.69;;;12.17;100.00
7668;BME280;3876;42.204;24.686;2023-05-12T03:54:08;99969.09;;;12.22;100.00
7668;BME280;3876;42.204;24.686;2023-05-12T03:56:34;99964.03;;;12.19;100.00
7668;BME280;3876;42.204;24.686;2023-05-12T03:59:01;99964.03;;;12.19;100.00
7668;BME280;3876;42.204;24.686;2023-05-12T04:01:29;99964.91;;;12.18;100.00
7668;BME280;3876;42.204;24.686;2023-05-12T04:03:56;99966.50;;;12.24;100.00
7668;BME280;3876;42.204;24.686;2023-05-12T04:06:23;99962.44;;;12.15;99.34
7668;BME280;3876;42.204;24.686;2023-05-12T04:08:49;99966.75;;;12.15;100.00
7668;BME280;3876;42.204;24.686;2023-05-12T04:11:16;99972.69;;;12.17;99.58
7668;BME280;3876;42.204;24.686;2023-05-12T04:13:43;99974.41;;;12.16;99.60
7668;BME280;3876;42.204;24.686;2023-05-12T04:16:09;99972.63;;;12.18;99.05
7668;BME280;3876;42.204;24.686;2023-05-12T04:18:37;99968.47;;;12.14;99.29
7668;BME280;3876;42.204;24.686;2023-05-12T04:21:04;99947.44;;;12.00;100.00
7668;BME280;3876;42.204;24.686;2023-05-12T04:23:31;99972.81;;;12.12;100.00
7668;BME280;3876;42.204;24.686;2023-05-12T04:25:58;99969.44;;;12.10;100.00
7668;BME280;3876;42.204;24.686;2023-05-12T04:28:24;99971.06;;;12.14;100.00
7668;BME280;3876;42.204;24.686;2023-05-12T04:30:51;99969.19;;;12.19;100.00
7668;BME280;3876;42.204;24.686;2023-05-12T04:33:18;99971.72;;;12.21;100.00
7668;BME280;3876;42.204;24.686;2023-05-12T04:35:46;99966.69;;;12.16;100.00
7668;BME280;3876;42.204;24.686;2023-05-12T04:38:12;99964.22;;;12.13;100.00
7668;BME280;3876;42.204;24.686;2023-05-12T04:40:39;99957.22;;;12.18;100.00
7668;BME280;3876;42.204;24.686;2023-05-12T04:43:06;99962.22;;;12.24;100.00
7668;BME280;3876;42.204;24.686;2023-05-12T04:45:32;99940.31;;;12.09;100.00
7668;BME280;3876;42.204;24.686;2023-05-12T04:47:59;99958.91;;;12.19;99.79
7668;BME280;3876;42.204;24.686;2023-05-12T04:50:26;99959.84;;;12.17;99.73
7668;BME280;3876;42.204;24.686;2023-05-12T04:52:54;99965.31;;;12.04;99.54
7668;BME280;3876;42.204;24.686;2023-05-12T04:55:21;99964.38;;;12.07;100.00
7668;BME280;3876;42.204;24.686;2023-05-12T04:57:47;99969.28;;;12.16;100.00
7668;BME280;3876;42.204;24.686;2023-05-12T05:00:14;99971.72;;;12.21;99.48
7668;BME280;3876;42.204;24.686;2023-05-12T05:02:41;99969.91;;;12.24;99.98
7668;BME280;3876;42.204;24.686;2023-05-12T05:05:08;99967.09;;;12.33;99.34
7668;BME280;3876;42.204;24.686;2023-05-12T05:07:36;99973.75;;;12.40;99.77
7668;BME280;3876;42.204;24.686;2023-05-12T05:10:05;99971.16;;;12.40;99.62
7668;BME280;3876;42.204;24.686;2023-05-12T05:12:32;99966.81;;;12.42;99.89
7668;BME280;3876;42.204;24.686;2023-05-12T05:14:59;99969.84;;;12.26;100.00
7668;BME280;3876;42.204;24.686;2023-05-12T05:17:27;99971.38;;;12.33;99.80
7668;BME280;3876;42.204;24.686;2023-05-12T05:19:53;99973.75;;;12.40;99.50
7668;BME280;3876;42.204;24.686;2023-05-12T05:22:20;99970.34;;;12.38;99.32
7668;BME280;3876;42.204;24.686;2023-05-12T05:24:47;99978.72;;;12.46;99.88
7668;BME280;3876;42.204;24.686;2023-05-12T05:27:15;99979.66;;;12.44;99.65
7668;BME280;3876;42.204;24.686;2023-05-12T05:29:41;99973.75;;;12.40;100.00
7668;BME280;3876;42.204;24.686;2023-05-12T05:32:08;99972.97;;;12.37;100.00
7668;BME280;3876;42.204;24.686;2023-05-12T05:34:35;99972.72;;;12.46;100.00
7668;BME280;3876;42.204;24.686;2023-05-12T05:37:01;99977.56;;;12.56;100.00
7668;BME280;3876;42.204;24.686;2023-05-12T05:39:28;99975.00;;;12.56;99.43
7668;BME280;3876;42.204;24.686;2023-05-12T05:41:55;99980.63;;;12.69;98.69
7668;BME280;3876;42.204;24.686;2023-05-12T05:44:24;99965.50;;;12.57;98.39
7668;BME280;3876;42.204;24.686;2023-05-12T05:46:51;99977.88;;;12.74;98.38
7668;BME280;3876;42.204;24.686;2023-05-12T05:49:18;99974.06;;;12.87;99.01
7668;BME280;3876;42.204;24.686;2023-05-12T05:51:45;99980.41;;;13.03;99.31
7668;BME280;3876;42.204;24.686;2023-05-12T05:54:11;99985.31;;;13.12;97.75
7668;BME280;3876;42.204;24.686;2023-05-12T05:56:38;99969.72;;;13.17;95.86
7668;BME280;3876;42.204;24.686;2023-05-12T05:59:05;99961.25;;;13.13;95.83
7668;BME280;3876;42.204;24.686;2023-05-12T06:01:33;99982.84;;;13.35;95.88
7668;BME280;3876;42.204;24.686;2023-05-12T06:04:00;99987.91;;;13.38;95.67
7668;BME280;3876;42.204;24.686;2023-05-12T06:06:27;99986.72;;;13.48;94.02
7668;BME280;3876;42.204;24.686;2023-05-12T06:08:54;99987.53;;;13.50;93.78
7668;BME280;3876;42.204;24.686;2023-05-12T06:11:21;99991.56;;;13.57;94.71
7668;BME280;3876;42.204;24.686;2023-05-12T06:13:48;99999.19;;;13.60;93.82
7668;BME280;3876;42.204;24.686;2023-05-12T06:16:15;99990.47;;;13.64;94.44
7668;BME280;3876;42.204;24.686;2023-05-12T06:18:43;99991.63;;;13.82;94.51
7668;BME280;3876;42.204;24.686;2023-05-12T06:21:09;99991.34;;;13.90;93.44
7668;BME280;3876;42.204;24.686;2023-05-12T06:23:36;99993.00;;;14.15;93.95
7668;BME280;3876;42.204;24.686;2023-05-12T06:26:03;99998.34;;;14.36;92.25
7668;BME280;3876;42.204;24.686;2023-05-12T06:28:32;99983.94;;;14.29;91.90
7668;BME280;3876;42.204;24.686;2023-05-12T06:30:58;100000.81;;;14.39;91.18
7668;BME280;3876;42.204;24.686;2023-05-12T06:33:25;100001.44;;;14.20;91.28
7668;BME280;3876;42.204;24.686;2023-05-12T06:35:53;99993.97;;;14.13;91.20
7668;BME280;3876;42.204;24.686;2023-05-12T06:38:20;99999.94;;;14.15;91.91
7668;BME280;3876;42.204;24.686;2023-05-12T06:40:46;99996.72;;;14.33;92.91
7668;BME280;3876;42.204;24.686;2023-05-12T06:43:13;99991.69;;;14.53;91.54
7668;BME280;3876;42.204;24.686;2023-05-12T06:45:40;99995.06;;;14.77;89.88
7668;BME280;3876;42.204;24.686;2023-05-12T06:48:06;100000.97;;;14.57;87.66
7668;BME280;3876;42.204;24.686;2023-05-12T06:50:33;99992.56;;;14.52;88.99
7668;BME280;3876;42.204;24.686;2023-05-12T06:53:01;99993.56;;;14.71;89.71
7668;BME280;3876;42.204;24.686;2023-05-12T06:55:29;99994.56;;;14.91;88.49
7668;BME280;3876;42.204;24.686;2023-05-12T06:57:56;99992.66;;;14.96;86.37
7668;BME280;3876;42.204;24.686;2023-05-12T07:00:23;99984.94;;;14.94;87.21
7668;BME280;3876;42.204;24.686;2023-05-12T07:02:50;99993.47;;;14.96;85.54
7668;BME280;3876;42.204;24.686;2023-05-12T07:05:17;99990.16;;;14.93;86.59
7668;BME280;3876;42.204;24.686;2023-05-12T07:07:45;100000.19;;;14.79;86.51
7668;BME280;3876;42.204;24.686;2023-05-12T07:10:13;99994.28;;;14.75;84.75
7668;BME280;3876;42.204;24.686;2023-05-12T07:12:39;99998.38;;;14.81;85.41
7668;BME280;3876;42.204;24.686;2023-05-12T07:15:07;99999.63;;;14.70;85.68
7668;BME280;3876;42.204;24.686;2023-05-12T07:17:34;100005.00;;;14.64;84.95
7668;BME280;3876;42.204;24.686;2023-05-12T07:20:01;99999.81;;;14.66;83.53
7668;BME280;3876;42.204;24.686;2023-05-12T07:22:29;100008.22;;;14.71;82.72
7668;BME280;3876;42.204;24.686;2023-05-12T07:24:56;99998.59;;;14.75;82.50
7668;BME280;3876;42.204;24.686;2023-05-12T07:27:24;100000.84;;;14.60;81.28
7668;BME280;3876;42.204;24.686;2023-05-12T07:29:51;100008.41;;;14.66;83.22
7668;BME280;3876;42.204;24.686;2023-05-12T07:32:18;100010.16;;;14.88;81.91
7668;BME280;3876;42.204;24.686;2023-05-12T07:34:44;100005.00;;;14.88;81.85
7668;BME280;3876;42.204;24.686;2023-05-12T07:37:11;99998.25;;;14.84;82.15
7668;BME280;3876;42.204;24.686;2023-05-12T07:39:38;100010.75;;;14.94;79.89
7668;BME280;3876;42.204;24.686;2023-05-12T07:42:05;100001.66;;;15.07;82.02
7668;BME280;3876;42.204;24.686;2023-05-12T07:44:33;99996.59;;;15.26;82.06
7668;BME280;3876;42.204;24.686;2023-05-12T07:47:00;99995.47;;;15.33;79.00
7668;BME280;3876;42.204;24.686;2023-05-12T07:49:27;99996.34;;;15.32;78.95
7668;BME280;3876;42.204;24.686;2023-05-12T07:51:53;99997.44;;;15.48;78.55
7668;BME280;3876;42.204;24.686;2023-05-12T07:54:20;99997.19;;;15.54;75.56
7668;BME280;3876;42.204;24.686;2023-05-12T07:56:47;99986.22;;;15.49;76.15
7668;BME280;3876;42.204;24.686;2023-05-12T07:59:13;99991.66;;;15.63;78.11
7668;BME280;3876;42.204;24.686;2023-05-12T08:01:42;99997.31;;;15.73;78.95
7668;BME280;3876;42.204;24.686;2023-05-12T08:04:09;99996.56;;;16.10;77.74
7668;BME280;3876;42.204;24.686;2023-05-12T08:06:35;99995.53;;;16.53;77.46
7668;BME280;3876;42.204;24.686;2023-05-12T08:09:02;100004.53;;;16.83;71.65
7668;BME280;3876;42.204;24.686;2023-05-12T08:11:29;99994.16;;;17.02;71.37
7668;BME280;3876;42.204;24.686;2023-05-12T08:13:56;100002.72;;;17.21;69.59
7668;BME280;3876;42.204;24.686;2023-05-12T08:16:23;100006.28;;;17.54;69.94
7668;BME280;3876;42.204;24.686;2023-05-12T08:18:51;100006.31;;;17.18;67.12
7668;BME280;3876;42.204;24.686;2023-05-12T08:21:17;100004.66;;;17.35;69.11
7668;BME280;3876;42.204;24.686;2023-05-12T08:23:44;100000.06;;;17.58;68.05
7668;BME280;3876;42.204;24.686;2023-05-12T08:26:11;100006.38;;;17.87;67.22
7668;BME280;3876;42.204;24.686;2023-05-12T08:28:38;99996.53;;;17.94;66.94
7668;BME280;3876;42.204;24.686;2023-05-12T08:31:04;100001.34;;;18.01;66.12
7668;BME280;3876;42.204;24.686;2023-05-12T08:33:33;100005.69;;;18.01;64.24
7668;BME280;3876;42.204;24.686;2023-05-12T08:36:01;100009.91;;;17.86;64.32
7668;BME280;3876;42.204;24.686;2023-05-12T08:38:28;100000.66;;;17.80;62.94
7668;BME280;3876;42.204;24.686;2023-05-12T08:41:06;100011.34;;;17.74;63.77
7668;BME280;3876;42.204;24.686;2023-05-12T08:43:37;99990.63;;;17.21;65.83
7668;BME280;3876;42.204;24.686;2023-05-12T08:46:04;99998.50;;;17.54;68.22
7668;BME280;3876;42.204;24.686;2023-05-12T08:48:33;100014.50;;;17.45;65.43
7668;BME280;3876;42.204;24.686;2023-05-12T08:51:05;100017.06;;;17.28;63.37
7668;BME280;3876;42.204;24.686;2023-05-12T08:53:35;100016.53;;;17.21;65.89
7668;BME280;3876;42.204;24.686;2023-05-12T08:56:05;99997.44;;;17.22;67.25
7668;BME280;3876;42.204;24.686;2023-05-12T08:58:32;100004.66;;;17.52;66.59
7668;BME280;3876;42.204;24.686;2023-05-12T09:00:59;100010.50;;;17.21;64.33
7668;BME280;3876;42.204;24.686;2023-05-12T09:03:27;100005.22;;;17.41;66.25
7668;BME280;3876;42.204;24.686;2023-05-12T09:05:56;99990.25;;;17.46;62.51
7668;BME280;3876;42.204;24.686;2023-05-12T09:08:26;99995.28;;;17.49;62.62
7668;BME280;3876;42.204;24.686;2023-05-12T09:10:55;100000.38;;;17.87;64.12
7668;BME280;3876;42.204;24.686;2023-05-12T09:13:27;99997.16;;;17.81;62.13
7668;BME280;3876;42.204;24.686;2023-05-12T09:15:58;99994.28;;;17.52;60.61
7668;BME280;3876;42.204;24.686;2023-05-12T09:18:25;99992.94;;;17.45;64.57
7668;BME280;3876;42.204;24.686;2023-05-12T09:20:52;99993.59;;;17.31;65.88
7668;BME280;3876;42.204;24.686;2023-05-12T09:23:20;99990.09;;;17.49;65.58
7668;BME280;3876;42.204;24.686;2023-05-12T09:25:57;99990.00;;;17.69;64.65
7668;BME280;3876;42.204;24.686;2023-05-12T09:28:33;99991.44;;;17.75;62.02
7668;BME280;3876;42.204;24.686;2023-05-12T09:31:00;99984.00;;;17.50;62.31
7668;BME280;3876;42.204;24.686;2023-05-12T09:33:33;99953.81;;;17.49;62.97
7668;BME280;3876;42.204;24.686;2023-05-12T09:36:00;99981.13;;;17.91;62.86
7668;BME280;3876;42.204;24.686;2023-05-12T09:38:27;99987.22;;;18.07;60.42
7668;BME280;3876;42.204;24.686;2023-05-12T09:40:55;99981.06;;;18.09;61.51
7668;BME280;3876;42.204;24.686;2023-05-12T09:43:21;99980.44;;;18.37;62.20
7668;BME280;3876;42.204;24.686;2023-05-12T09:45:48;99983.19;;;18.51;59.43
7668;BME280;3876;42.204;24.686;2023-05-12T09:48:16;99977.16;;;18.66;59.79
7668;BME280;3876;42.204;24.686;2023-05-12T09:50:44;99966.09;;;18.63;59.08
7668;BME280;3876;42.204;24.686;2023-05-12T09:53:11;99979.50;;;18.86;58.16
7668;BME280;3876;42.204;24.686;2023-05-12T09:55:41;99996.00;;;18.85;57.48
7668;BME280;3876;42.204;24.686;2023-05-12T09:58:10;99982.69;;;18.60;56.47
7668;BME280;3876;42.204;24.686;2023-05-12T10:00:37;99980.50;;;18.68;57.19
7668;BME280;3876;42.204;24.686;2023-05-12T10:03:09;99975.75;;;18.44;56.98
7668;BME280;3876;42.204;24.686;2023-05-12T10:05:38;99950.47;;;18.47;58.47
7668;BME280;3876;42.204;24.686;2023-05-12T10:08:12;99985.34;;;18.74;58.22
7668;BME280;3876;42.204;24.686;2023-05-12T10:10:44;99986.47;;;18.70;57.66
7668;BME280;3876;42.204;24.686;2023-05-12T10:13:14;99959.88;;;18.65;56.88
7668;BME280;3876;42.204;24.686;2023-05-12T10:15:41;99962.13;;;18.56;57.89
7668;BME280;3876;42.204;24.686;2023-05-12T10:18:09;99955.03;;;18.59;58.35
7668;BME280;3876;42.204;24.686;2023-05-12T10:20:38;99969.69;;;18.76;57.23
7668;BME280;3876;42.204;24.686;2023-05-12T10:23:05;99966.69;;;18.83;58.19
7668;BME280;3876;42.204;24.686;2023-05-12T10:25:32;99970.94;;;18.84;56.79
7668;BME280;3876;42.204;24.686;2023-05-12T10:28:00;99960.28;;;19.05;58.96
7668;BME280;3876;42.204;24.686;2023-05-12T10:30:30;99963.25;;;18.99;58.02
7668;BME280;3876;42.204;24.686;2023-05-12T10:32:57;99955.34;;;19.16;58.88
7668;BME280;3876;42.204;24.686;2023-05-12T10:35:30;99960.38;;;19.03;54.66
7668;BME280;3876;42.204;24.686;2023-05-12T10:38:00;99959.16;;;18.79;53.74
7668;BME280;3876;42.204;24.686;2023-05-12T10:40:28;99959.88;;;18.81;53.52
7668;BME280;3876;42.204;24.686;2023-05-12T10:42:57;99955.19;;;18.87;56.21
7668;BME280;3876;42.204;24.686;2023-05-12T10:45:25;99957.03;;;19.01;56.01
7668;BME280;3876;42.204;24.686;2023-05-12T10:48:03;99941.94;;;19.08;55.18
7668;BME280;3876;42.204;24.686;2023-05-12T10:50:31;99919.94;;;18.83;54.70
7668;BME280;3876;42.204;24.686;2023-05-12T10:52:57;99935.41;;;19.01;54.50
7668;BME280;3876;42.204;24.686;2023-05-12T10:55:32;99936.38;;;19.14;55.70
7668;BME280;3876;42.204;24.686;2023-05-12T10:58:04;99937.28;;;19.13;53.92
7668;BME280;3876;42.204;24.686;2023-05-12T11:00:31;99944.56;;;18.92;55.24
7668;BME280;3876;42.204;24.686;2023-05-12T11:03:12;99938.78;;;18.71;56.07
7668;BME280;3876;42.204;24.686;2023-05-12T11:05:41;99938.94;;;19.00;58.07
7668;BME280;3876;42.204;24.686;2023-05-12T11:08:08;99938.63;;;19.20;56.56
7668;BME280;3876;42.204;24.686;2023-05-12T11:10:35;99925.66;;;19.50;57.01
7668;BME280;3876;42.204;24.686;2023-05-12T11:13:02;99924.38;;;19.57;54.19
7668;BME280;3876;42.204;24.686;2023-05-12T11:15:29;99937.28;;;19.58;52.40
7668;BME280;3876;42.204;24.686;2023-05-12T11:17:55;99930.00;;;19.19;52.83
7668;BME280;3876;42.204;24.686;2023-05-12T11:20:24;99936.88;;;19.20;53.40
7668;BME280;3876;42.204;24.686;2023-05-12T11:22:51;99942.59;;;19.11;52.76
7668;BME280;3876;42.204;24.686;2023-05-12T11:25:19;99937.19;;;19.30;53.86
7668;BME280;3876;42.204;24.686;2023-05-12T11:27:46;99937.19;;;19.30;51.09
7668;BME280;3876;42.204;24.686;2023-05-12T11:30:13;99931.63;;;19.36;51.30
7668;BME280;3876;42.204;24.686;2023-05-12T11:32:40;99920.06;;;19.26;51.60
7668;BME280;3876;42.204;24.686;2023-05-12T11:35:09;99900.19;;;19.11;51.86
7668;BME280;3876;42.204;24.686;2023-05-12T11:37:38;99931.78;;;19.19;49.03
7668;BME280;3876;42.204;24.686;2023-05-12T11:40:13;99928.66;;;19.28;50.32
7668;BME280;3876;42.204;24.686;2023-05-12T11:42:40;99910.31;;;19.15;51.49
7668;BME280;3876;42.204;24.686;2023-05-12T11:45:18;99916.75;;;19.24;52.25
7668;BME280;3876;42.204;24.686;2023-05-12T11:47:45;99924.78;;;19.35;51.93
7668;BME280;3876;42.204;24.686;2023-05-12T11:50:19;99912.78;;;19.48;52.27
7668;BME280;3876;42.204;24.686;2023-05-12T11:52:48;99920.31;;;19.37;52.25
7668;BME280;3876;42.204;24.686;2023-05-12T11:55:19;99918.41;;;19.41;52.72
7668;BME280;3876;42.204;24.686;2023-05-12T11:57:55;99917.72;;;19.37;52.52
7668;BME280;3876;42.204;24.686;2023-05-12T12:00:27;99909.44;;;19.60;53.16
7668;BME280;3876;42.204;24.686;2023-05-12T12:03:07;99891.59;;;19.68;52.81
7668;BME280;3876;42.204;24.686;2023-05-12T12:05:34;99904.06;;;19.91;51.92
7668;BME280;3876;42.204;24.686;2023-05-12T12:08:08;99911.69;;;20.09;51.77
7668;BME280;3876;42.204;24.686;2023-05-12T12:10:37;99918.78;;;19.92;52.41
7668;BME280;3876;42.204;24.686;2023-05-12T12:13:04;99914.38;;;20.07;50.94
7668;BME280;3876;42.204;24.686;2023-05-12T12:15:31;99909.44;;;19.60;49.18
7668;BME280;3876;42.204;24.686;2023-05-12T12:17:57;99904.59;;;19.54;52.28
7668;BME280;3876;42.204;24.686;2023-05-12T12:20:24;99907.75;;;19.59;50.54
7668;BME280;3876;42.204;24.686;2023-05-12T12:22:51;99899.59;;;19.51;51.66
7668;BME280;3876;42.204;24.686;2023-05-12T12:25:20;99907.09;;;19.56;52.07
7668;BME280;3876;42.204;24.686;2023-05-12T12:27:47;99891.19;;;19.46;53.21
7668;BME280;3876;42.204;24.686;2023-05-12T12:30:15;99891.41;;;19.57;52.21
7668;BME280;3876;42.204;24.686;2023-05-12T12:32:43;99901.25;;;19.52;51.58
7668;BME280;3876;42.204;24.686;2023-05-12T12:35:10;99883.63;;;19.57;52.61
7668;BME280;3876;42.204;24.686;2023-05-12T12:37:38;99892.63;;;19.66;51.29
7668;BME280;3876;42.204;24.686;2023-05-12T12:40:05;99871.44;;;19.72;52.34
7668;BME280;3876;42.204;24.686;2023-05-12T12:42:37;99883.81;;;19.82;52.26
7668;BME280;3876;42.204;24.686;2023-05-12T12:45:06;99889.00;;;19.68;51.21
7668;BME280;3876;42.204;24.686;2023-05-12T12:47:34;99883.97;;;19.65;52.11
7668;BME280;3876;42.204;24.686;2023-05-12T12:50:01;99887.31;;;19.53;52.34
7668;BME280;3876;42.204;24.686;2023-05-12T12:52:28;99879.44;;;19.55;53.11
7668;BME280;3876;42.204;24.686;2023-05-12T12:54:54;99881.47;;;19.50;52.97
7668;BME280;3876;42.204;24.686;2023-05-12T12:57:21;99858.81;;;19.36;52.46
7668;BME280;3876;42.204;24.686;2023-05-12T12:59:49;99862.41;;;19.49;55.46
7668;BME280;3876;42.204;24.686;2023-05-12T13:02:16;99872.06;;;19.61;51.87
7668;BME280;3876;42.204;24.686;2023-05-12T13:04:43;99866.88;;;19.47;51.44
7668;BME280;3876;42.204;24.686;2023-05-12T13:07:10;99874.88;;;19.58;52.52